sensor_id;sensor_type;location;lat;lon;timestamp;temperature;humidity
68215;DHT22;55036;52.138;5.236;2023-03-19T00:00:28;13.00;84.40
68215;DHT22;55036;52.138;5.236;2023-03-19T00:02:55;13.10;83.90
68215;DHT22;55036;52.138;5.236;2023-03-19T00:05:22;13.10;84.20
68215;DHT22;55036;52.138;5.236;2023-03-19T00:07:48;13.00;84.70
68215;DHT22;55036;52.138;5.236;2023-03-19T00:10:15;13.00;84.50
68215;DHT22;55036;52.138;5.236;2023-03-19T00:12:42;12.90;85.00
68215;DHT22;55036;52.138;5.236;2023-03-19T00:15:09;12.90;84.50
68215;DHT22;55036;52.138;5.236;2023-03-19T00:17:40;13.00;84.30
68215;DHT22;55036;52.138;5.236;2023-03-19T00:20:08;12.90;84.90
68215;DHT22;55036;52.138;5.236;2023-03-19T00:22:35;13.00;84.70
68215;DHT22;55036;52.138;5.236;2023-03-19T00:25:02;13.00;84.90
68215;DHT22;55036;52.138;5.236;2023-03-19T00:27:29;12.90;85.00
68215;DHT22;55036;52.138;5.236;2023-03-19T00:29:56;12.90;85.70
68215;DHT22;55036;52.138;5.236;2023-03-19T00:32:22;12.90;85.60
68215;DHT22;55036;52.138;5.236;2023-03-19T00:34:49;12.90;85.40
68215;DHT22;55036;52.138;5.236;2023-03-19T00:37:16;12.90;85.50
68215;DHT22;55036;52.138;5.236;2023-03-19T00:39:43;12.90;85.60
68215;DHT22;55036;52.138;5.236;2023-03-19T00:42:10;12.80;85.60
68215;DHT22;55036;52.138;5.236;2023-03-19T00:44:37;12.90;85.30
68215;DHT22;55036;52.138;5.236;2023-03-19T00:47:04;12.90;85.40
68215;DHT22;55036;52.138;5.236;2023-03-19T00:49:32;12.80;85.80
68215;DHT22;55036;52.138;5.236;2023-03-19T00:51:58;12.80;86.00
68215;DHT22;55036;52.138;5.236;2023-03-19T00:54:25;12.90;85.70
68215;DHT22;55036;52.138;5.236;2023-03-19T00:56:53;12.90;85.50
68215;DHT22;55036;52.138;5.236;2023-03-19T00:59:19;12.90;85.20
68215;DHT22;55036;52.138;5.236;2023-03-19T01:01:46;12.90;84.70
68215;DHT22;55036;52.138;5.236;2023-03-19T01:04:13;12.90;84.80
68215;DHT22;55036;52.138;5.236;2023-03-19T01:06:40;12.80;85.00
68215;DHT22;55036;52.138;5.236;2023-03-19T01:09:07;12.70;85.30
68215;DHT22;55036;52.138;5.236;2023-03-19T01:11:34;12.70;85.50
68215;DHT22;55036;52.138;5.236;2023-03-19T01:14:02;12.70;85.50
68215;DHT22;55036;52.138;5.236;2023-03-19T01:16:28;12.70;85.40
68215;DHT22;55036;52.138;5.236;2023-03-19T01:18:55;12.70;85.10
68215;DHT22;55036;52.138;5.236;2023-03-19T01:21:22;12.60;85.20
68215;DHT22;55036;52.138;5.236;2023-03-19T01:23:48;12.60;85.40
68215;DHT22;55036;52.138;5.236;2023-03-19T01:26:17;12.50;85.30
68215;DHT22;55036;52.138;5.236;2023-03-19T01:28:44;12.60;85.10
68215;DHT22;55036;52.138;5.236;2023-03-19T01:31:10;12.60;85.40
68215;DHT22;55036;52.138;5.236;2023-03-19T01:33:37;12.50;86.30
68215;DHT22;55036;52.138;5.236;2023-03-19T01:36:05;12.50;86.40
68215;DHT22;55036;52.138;5.236;2023-03-19T01:38:32;12.50;86.10
68215;DHT22;55036;52.138;5.236;2023-03-19T01:40:58;12.50;86.20
68215;DHT22;55036;52.138;5.236;2023-03-19T01:43:28;12.60;85.70
68215;DHT22;55036;52.138;5.236;2023-03-19T01:45:59;12.70;85.80
68215;DHT22;55036;52.138;5.236;2023-03-19T01:48:36;12.70;85.60
68215;DHT22;55036;52.138;5.236;2023-03-19T01:51:06;12.70;85.50
68215;DHT22;55036;52.138;5.236;2023-03-19T01:53:35;12.70;85.90
68215;DHT22;55036;52.138;5.236;2023-03-19T01:56:32;12.70;86.00
68215;DHT22;55036;52.138;5.236;2023-03-19T01:59:48;12.70;85.60
68215;DHT22;55036;52.138;5.236;2023-03-19T02:01:54;12.70;86.00
68215;DHT22;55036;52.138;5.236;2023-03-19T02:04:24;12.70;86.50
68215;DHT22;55036;52.138;5.236;2023-03-19T02:06:55;12.70;85.90
68215;DHT22;55036;52.138;5.236;2023-03-19T02:09:24;12.60;86.00
68215;DHT22;55036;52.138;5.236;2023-03-19T02:11:52;12.70;85.70
68215;DHT22;55036;52.138;5.236;2023-03-19T02:14:20;12.70;86.10
68215;DHT22;55036;52.138;5.236;2023-03-19T02:16:47;12.70;85.50
68215;DHT22;55036;52.138;5.236;2023-03-19T02:19:21;12.60;85.80
68215;DHT22;55036;52.138;5.236;2023-03-19T02:21:48;12.60;85.90
68215;DHT22;55036;52.138;5.236;2023-03-19T02:24:27;12.50;85.90
68215;DHT22;55036;52.138;5.236;2023-03-19T02:26:56;12.60;85.80
68215;DHT22;55036;52.138;5.236;2023-03-19T02:29:23;12.60;85.90
68215;DHT22;55036;52.138;5.236;2023-03-19T02:31:50;12.60;85.80
68215;DHT22;55036;52.138;5.236;2023-03-19T02:36:59;12.60;86.30
68215;DHT22;55036;52.138;5.236;2023-03-19T02:39:34;12.50;86.10
68215;DHT22;55036;52.138;5.236;2023-03-19T02:42:04;12.60;86.00
68215;DHT22;55036;52.138;5.236;2023-03-19T02:44:31;12.60;86.00
68215;DHT22;55036;52.138;5.236;2023-03-19T02:46:58;12.60;85.90
68215;DHT22;55036;52.138;5.236;2023-03-19T02:49:25;12.60;86.20
68215;DHT22;55036;52.138;5.236;2023-03-19T02:51:51;12.50;86.00
68215;DHT22;55036;52.138;5.236;2023-03-19T02:54:18;12.60;85.80
68215;DHT22;55036;52.138;5.236;2023-03-19T02:56:45;12.50;85.70
68215;DHT22;55036;52.138;5.236;2023-03-19T02:59:11;12.50;85.60
68215;DHT22;55036;52.138;5.236;2023-03-19T03:01:38;12.50;85.70
68215;DHT22;55036;52.138;5.236;2023-03-19T03:04:05;12.50;85.50
68215;DHT22;55036;52.138;5.236;2023-03-19T03:06:32;12.50;86.40
68215;DHT22;55036;52.138;5.236;2023-03-19T03:08:59;12.50;85.40
68215;DHT22;55036;52.138;5.236;2023-03-19T03:11:26;12.50;85.50
68215;DHT22;55036;52.138;5.236;2023-03-19T03:13:53;12.50;85.80
68215;DHT22;55036;52.138;5.236;2023-03-19T03:16:20;12.50;85.50
68215;DHT22;55036;52.138;5.236;2023-03-19T03:18:47;12.50;85.50
68215;DHT22;55036;52.138;5.236;2023-03-19T03:21:14;12.50;85.50
68215;DHT22;55036;52.138;5.236;2023-03-19T03:23:40;12.50;85.60
68215;DHT22;55036;52.138;5.236;2023-03-19T03:26:07;12.40;85.70
68215;DHT22;55036;52.138;5.236;2023-03-19T03:28:34;12.50;85.90
68215;DHT22;55036;52.138;5.236;2023-03-19T03:31:01;12.40;86.00
68215;DHT22;55036;52.138;5.236;2023-03-19T03:33:28;12.50;86.20
68215;DHT22;55036;52.138;5.236;2023-03-19T03:35:55;12.50;85.90
68215;DHT22;55036;52.138;5.236;2023-03-19T03:38:22;12.50;85.80
68215;DHT22;55036;52.138;5.236;2023-03-19T03:40:50;12.50;85.80
68215;DHT22;55036;52.138;5.236;2023-03-19T03:43:18;12.40;86.30
68215;DHT22;55036;52.138;5.236;2023-03-19T03:45:47;12.40;86.40
68215;DHT22;55036;52.138;5.236;2023-03-19T03:48:14;12.30;86.10
68215;DHT22;55036;52.138;5.236;2023-03-19T03:50:41;12.30;86.20
68215;DHT22;55036;52.138;5.236;2023-03-19T03:53:09;12.30;87.20
68215;DHT22;55036;52.138;5.236;2023-03-19T03:55:38;12.30;86.40
68215;DHT22;55036;52.138;5.236;2023-03-19T03:58:04;12.30;86.00
68215;DHT22;55036;52.138;5.236;2023-03-19T04:00:32;12.20;86.20
68215;DHT22;55036;52.138;5.236;2023-03-19T04:02:59;12.20;86.40
68215;DHT22;55036;52.138;5.236;2023-03-19T04:05:25;12.20;86.00
68215;DHT22;55036;52.138;5.236;2023-03-19T04:07:53;12.10;85.90
68215;DHT22;55036;52.138;5.236;2023-03-19T04:10:19;12.10;86.20
68215;DHT22;55036;52.138;5.236;2023-03-19T04:12:46;12.10;86.00
68215;DHT22;55036;52.138;5.236;2023-03-19T04:15:13;12.00;86.00
68215;DHT22;55036;52.138;5.236;2023-03-19T04:17:39;12.10;86.10
68215;DHT22;55036;52.138;5.236;2023-03-19T04:20:08;12.00;85.90
68215;DHT22;55036;52.138;5.236;2023-03-19T04:22:35;12.00;85.60
68215;DHT22;55036;52.138;5.236;2023-03-19T04:25:02;11.90;85.50
68215;DHT22;55036;52.138;5.236;2023-03-19T04:27:28;11.90;85.70
68215;DHT22;55036;52.138;5.236;2023-03-19T04:29:55;11.80;85.90
68215;DHT22;55036;52.138;5.236;2023-03-19T04:32:22;11.80;86.90
68215;DHT22;55036;52.138;5.236;2023-03-19T04:34:49;11.70;85.60
68215;DHT22;55036;52.138;5.236;2023-03-19T04:37:15;11.70;85.60
68215;DHT22;55036;52.138;5.236;2023-03-19T04:39:42;11.60;85.40
68215;DHT22;55036;52.138;5.236;2023-03-19T04:42:10;11.60;85.50
68215;DHT22;55036;52.138;5.236;2023-03-19T04:44:37;11.60;85.80
68215;DHT22;55036;52.138;5.236;2023-03-19T04:47:04;11.50;85.80
68215;DHT22;55036;52.138;5.236;2023-03-19T04:49:30;11.50;85.60
68215;DHT22;55036;52.138;5.236;2023-03-19T04:51:57;11.50;85.40
68215;DHT22;55036;52.138;5.236;2023-03-19T04:54:24;11.40;85.50
68215;DHT22;55036;52.138;5.236;2023-03-19T04:56:51;11.40;85.70
68215;DHT22;55036;52.138;5.236;2023-03-19T04:59:18;11.30;85.70
68215;DHT22;55036;52.138;5.236;2023-03-19T05:01:48;11.30;85.80
68215;DHT22;55036;52.138;5.236;2023-03-19T05:04:15;11.30;85.70
68215;DHT22;55036;52.138;5.236;2023-03-19T05:06:41;11.30;85.60
68215;DHT22;55036;52.138;5.236;2023-03-19T05:09:08;11.20;85.40
68215;DHT22;55036;52.138;5.236;2023-03-19T05:11:35;11.20;85.40
68215;DHT22;55036;52.138;5.236;2023-03-19T05:14:03;11.10;85.60
68215;DHT22;55036;52.138;5.236;2023-03-19T05:16:30;11.10;85.90
68215;DHT22;55036;52.138;5.236;2023-03-19T05:18:57;11.10;86.00
68215;DHT22;55036;52.138;5.236;2023-03-19T05:21:24;11.10;85.70
68215;DHT22;55036;52.138;5.236;2023-03-19T05:23:52;11.00;85.60
68215;DHT22;55036;52.138;5.236;2023-03-19T05:26:20;11.00;85.70
68215;DHT22;55036;52.138;5.236;2023-03-19T05:28:46;11.00;85.70
68215;DHT22;55036;52.138;5.236;2023-03-19T05:31:13;11.00;85.80
68215;DHT22;55036;52.138;5.236;2023-03-19T05:33:40;10.90;85.50
68215;DHT22;55036;52.138;5.236;2023-03-19T05:36:07;10.90;85.50
68215;DHT22;55036;52.138;5.236;2023-03-19T05:38:34;10.90;85.70
68215;DHT22;55036;52.138;5.236;2023-03-19T05:41:05;10.90;85.50
68215;DHT22;55036;52.138;5.236;2023-03-19T05:43:32;10.90;85.60
68215;DHT22;55036;52.138;5.236;2023-03-19T05:45:59;10.90;86.20
68215;DHT22;55036;52.138;5.236;2023-03-19T05:48:26;10.80;87.30
68215;DHT22;55036;52.138;5.236;2023-03-19T05:50:52;10.80;86.90
68215;DHT22;55036;52.138;5.236;2023-03-19T05:53:20;10.90;87.00
68215;DHT22;55036;52.138;5.236;2023-03-19T05:55:46;10.90;87.20
68215;DHT22;55036;52.138;5.236;2023-03-19T05:58:14;10.90;88.00
68215;DHT22;55036;52.138;5.236;2023-03-19T06:00:41;10.80;88.30
68215;DHT22;55036;52.138;5.236;2023-03-19T06:03:08;10.70;89.70
68215;DHT22;55036;52.138;5.236;2023-03-19T06:05:34;10.70;90.30
68215;DHT22;55036;52.138;5.236;2023-03-19T06:08:02;10.70;89.60
68215;DHT22;55036;52.138;5.236;2023-03-19T06:10:28;10.80;89.30
68215;DHT22;55036;52.138;5.236;2023-03-19T06:12:55;10.90;88.80
68215;DHT22;55036;52.138;5.236;2023-03-19T06:15:22;11.00;88.60
68215;DHT22;55036;52.138;5.236;2023-03-19T06:17:48;11.10;88.40
68215;DHT22;55036;52.138;5.236;2023-03-19T06:20:15;11.10;88.30
68215;DHT22;55036;52.138;5.236;2023-03-19T06:22:43;11.10;88.30
68215;DHT22;55036;52.138;5.236;2023-03-19T06:25:10;11.20;88.80
68215;DHT22;55036;52.138;5.236;2023-03-19T06:27:37;11.20;88.20
68215;DHT22;55036;52.138;5.236;2023-03-19T06:30:04;11.20;88.20
68215;DHT22;55036;52.138;5.236;2023-03-19T06:32:31;11.10;88.20
68215;DHT22;55036;52.138;5.236;2023-03-19T06:34:58;11.00;88.40
68215;DHT22;55036;52.138;5.236;2023-03-19T06:37:24;11.00;88.90
68215;DHT22;55036;52.138;5.236;2023-03-19T06:39:52;11.00;88.40
68215;DHT22;55036;52.138;5.236;2023-03-19T06:42:20;11.00;89.20
68215;DHT22;55036;52.138;5.236;2023-03-19T06:44:48;10.90;89.50
68215;DHT22;55036;52.138;5.236;2023-03-19T06:47:18;10.80;89.70
68215;DHT22;55036;52.138;5.236;2023-03-19T06:49:45;10.70;90.50
68215;DHT22;55036;52.138;5.236;2023-03-19T06:52:12;10.60;90.60
68215;DHT22;55036;52.138;5.236;2023-03-19T06:54:38;10.60;90.50
68215;DHT22;55036;52.138;5.236;2023-03-19T06:57:05;10.70;90.30
68215;DHT22;55036;52.138;5.236;2023-03-19T06:59:32;10.70;90.40
68215;DHT22;55036;52.138;5.236;2023-03-19T07:01:59;10.70;90.50
68215;DHT22;55036;52.138;5.236;2023-03-19T07:04:25;10.80;90.40
68215;DHT22;55036;52.138;5.236;2023-03-19T07:06:52;10.80;90.50
68215;DHT22;55036;52.138;5.236;2023-03-19T07:09:19;10.80;90.40
68215;DHT22;55036;52.138;5.236;2023-03-19T07:11:45;10.90;90.30
68215;DHT22;55036;52.138;5.236;2023-03-19T07:14:12;10.90;90.30
68215;DHT22;55036;52.138;5.236;2023-03-19T07:16:39;10.90;90.30
68215;DHT22;55036;52.138;5.236;2023-03-19T07:19:06;10.90;90.10
68215;DHT22;55036;52.138;5.236;2023-03-19T07:21:32;11.00;89.90
68215;DHT22;55036;52.138;5.236;2023-03-19T07:23:59;10.90;90.00
68215;DHT22;55036;52.138;5.236;2023-03-19T07:26:26;10.80;90.40
68215;DHT22;55036;52.138;5.236;2023-03-19T07:28:53;10.80;90.30
68215;DHT22;55036;52.138;5.236;2023-03-19T07:31:19;10.90;90.10
68215;DHT22;55036;52.138;5.236;2023-03-19T07:33:46;10.80;90.50
68215;DHT22;55036;52.138;5.236;2023-03-19T07:36:13;10.80;90.00
68215;DHT22;55036;52.138;5.236;2023-03-19T07:38:39;10.90;90.30
68215;DHT22;55036;52.138;5.236;2023-03-19T07:41:06;10.80;90.20
68215;DHT22;55036;52.138;5.236;2023-03-19T07:43:33;10.80;90.20
68215;DHT22;55036;52.138;5.236;2023-03-19T07:46:00;10.80;90.20
68215;DHT22;55036;52.138;5.236;2023-03-19T07:48:27;10.80;90.30
68215;DHT22;55036;52.138;5.236;2023-03-19T07:50:54;10.70;90.50
68215;DHT22;55036;52.138;5.236;2023-03-19T07:53:21;10.60;90.50
68215;DHT22;55036;52.138;5.236;2023-03-19T07:55:47;10.70;90.50
68215;DHT22;55036;52.138;5.236;2023-03-19T07:58:14;10.80;90.40
68215;DHT22;55036;52.138;5.236;2023-03-19T08:00:42;11.00;90.50
68215;DHT22;55036;52.138;5.236;2023-03-19T08:03:10;11.10;90.00
68215;DHT22;55036;52.138;5.236;2023-03-19T08:05:37;11.00;90.30
68215;DHT22;55036;52.138;5.236;2023-03-19T08:08:04;11.10;90.10
68215;DHT22;55036;52.138;5.236;2023-03-19T08:10:31;11.20;90.20
68215;DHT22;55036;52.138;5.236;2023-03-19T08:13:01;11.30;89.40
68215;DHT22;55036;52.138;5.236;2023-03-19T08:15:30;11.20;89.90
68215;DHT22;55036;52.138;5.236;2023-03-19T08:17:58;11.10;90.10
68215;DHT22;55036;52.138;5.236;2023-03-19T08:20:25;11.20;90.40
68215;DHT22;55036;52.138;5.236;2023-03-19T08:22:52;11.30;89.00
68215;DHT22;55036;52.138;5.236;2023-03-19T08:25:19;11.20;90.10
68215;DHT22;55036;52.138;5.236;2023-03-19T08:27:46;11.20;89.80
68215;DHT22;55036;52.138;5.236;2023-03-19T08:30:12;11.30;89.20
68215;DHT22;55036;52.138;5.236;2023-03-19T08:32:39;11.30;89.90
68215;DHT22;55036;52.138;5.236;2023-03-19T08:35:06;11.40;89.20
68215;DHT22;55036;52.138;5.236;2023-03-19T08:37:33;11.50;89.50
68215;DHT22;55036;52.138;5.236;2023-03-19T08:40:00;11.60;89.90
68215;DHT22;55036;52.138;5.236;2023-03-19T08:42:27;11.70;89.50
68215;DHT22;55036;52.138;5.236;2023-03-19T08:44:54;11.90;89.20
68215;DHT22;55036;52.138;5.236;2023-03-19T08:47:21;12.00;89.00
68215;DHT22;55036;52.138;5.236;2023-03-19T08:49:50;12.10;88.70
68215;DHT22;55036;52.138;5.236;2023-03-19T08:52:18;12.10;87.50
68215;DHT22;55036;52.138;5.236;2023-03-19T08:54:45;12.20;87.30
68215;DHT22;55036;52.138;5.236;2023-03-19T08:57:11;12.10;87.00
68215;DHT22;55036;52.138;5.236;2023-03-19T08:59:38;12.20;86.70
68215;DHT22;55036;52.138;5.236;2023-03-19T09:02:05;12.10;86.80
68215;DHT22;55036;52.138;5.236;2023-03-19T09:04:32;12.10;86.70
68215;DHT22;55036;52.138;5.236;2023-03-19T09:07:04;12.10;86.40
68215;DHT22;55036;52.138;5.236;2023-03-19T09:09:32;12.10;86.70
68215;DHT22;55036;52.138;5.236;2023-03-19T09:11:59;12.10;86.60
68215;DHT22;55036;52.138;5.236;2023-03-19T09:14:26;12.10;86.20
68215;DHT22;55036;52.138;5.236;2023-03-19T09:16:53;12.20;86.20
68215;DHT22;55036;52.138;5.236;2023-03-19T09:19:21;12.20;86.60
68215;DHT22;55036;52.138;5.236;2023-03-19T09:21:49;12.20;86.40
68215;DHT22;55036;52.138;5.236;2023-03-19T09:24:16;12.20;86.20
68215;DHT22;55036;52.138;5.236;2023-03-19T09:26:43;12.30;85.60
68215;DHT22;55036;52.138;5.236;2023-03-19T09:29:09;12.30;85.20
68215;DHT22;55036;52.138;5.236;2023-03-19T09:31:36;12.30;85.50
68215;DHT22;55036;52.138;5.236;2023-03-19T09:34:03;12.40;85.30
68215;DHT22;55036;52.138;5.236;2023-03-19T09:36:30;12.40;85.30
68215;DHT22;55036;52.138;5.236;2023-03-19T09:38:57;12.30;85.00
68215;DHT22;55036;52.138;5.236;2023-03-19T09:44:13;12.20;84.60
68215;DHT22;55036;52.138;5.236;2023-03-19T09:46:53;12.20;85.60
68215;DHT22;55036;52.138;5.236;2023-03-19T09:49:33;12.20;85.20
68215;DHT22;55036;52.138;5.236;2023-03-19T09:52:36;12.20;85.30
68215;DHT22;55036;52.138;5.236;2023-03-19T09:57:45;12.30;84.80
68215;DHT22;55036;52.138;5.236;2023-03-19T10:00:19;12.20;85.30
68215;DHT22;55036;52.138;5.236;2023-03-19T10:08:47;12.30;85.40
68215;DHT22;55036;52.138;5.236;2023-03-19T10:17:03;12.50;85.00
68215;DHT22;55036;52.138;5.236;2023-03-19T10:20:04;12.40;85.20
68215;DHT22;55036;52.138;5.236;2023-03-19T10:22:34;12.50;84.90
68215;DHT22;55036;52.138;5.236;2023-03-19T10:25:02;12.50;84.90
68215;DHT22;55036;52.138;5.236;2023-03-19T10:27:29;12.50;84.10
68215;DHT22;55036;52.138;5.236;2023-03-19T10:29:56;12.40;85.20
68215;DHT22;55036;52.138;5.236;2023-03-19T10:32:37;12.50;85.40
68215;DHT22;55036;52.138;5.236;2023-03-19T10:35:18;12.60;85.00
68215;DHT22;55036;52.138;5.236;2023-03-19T10:37:47;12.70;84.90
68215;DHT22;55036;52.138;5.236;2023-03-19T10:40:21;12.70;84.80
68215;DHT22;55036;52.138;5.236;2023-03-19T10:43:12;12.70;85.20
68215;DHT22;55036;52.138;5.236;2023-03-19T10:45:40;12.70;84.70
68215;DHT22;55036;52.138;5.236;2023-03-19T10:48:13;12.70;84.30
68215;DHT22;55036;52.138;5.236;2023-03-19T10:50:51;12.60;84.70
68215;DHT22;55036;52.138;5.236;2023-03-19T10:53:37;12.50;85.70
68215;DHT22;55036;52.138;5.236;2023-03-19T10:56:25;12.40;85.40
68215;DHT22;55036;52.138;5.236;2023-03-19T10:59:03;12.50;85.20
68215;DHT22;55036;52.138;5.236;2023-03-19T11:01:37;12.60;84.30
68215;DHT22;55036;52.138;5.236;2023-03-19T11:04:20;12.40;85.40
68215;DHT22;55036;52.138;5.236;2023-03-19T11:06:52;12.20;85.90
68215;DHT22;55036;52.138;5.236;2023-03-19T11:12:21;12.10;86.10
68215;DHT22;55036;52.138;5.236;2023-03-19T11:14:51;11.90;86.80
68215;DHT22;55036;52.138;5.236;2023-03-19T11:17:39;12.00;86.60
68215;DHT22;55036;52.138;5.236;2023-03-19T11:20:19;12.20;86.30
68215;DHT22;55036;52.138;5.236;2023-03-19T11:22:48;12.20;86.00
68215;DHT22;55036;52.138;5.236;2023-03-19T11:25:45;12.10;86.80
68215;DHT22;55036;52.138;5.236;2023-03-19T11:28:17;12.10;86.50
68215;DHT22;55036;52.138;5.236;2023-03-19T11:33:24;12.10;87.00
68215;DHT22;55036;52.138;5.236;2023-03-19T11:36:12;12.20;86.50
68215;DHT22;55036;52.138;5.236;2023-03-19T11:50:15;12.20;86.50
68215;DHT22;55036;52.138;5.236;2023-03-19T11:53:18;12.30;86.20
68215;DHT22;55036;52.138;5.236;2023-03-19T11:58:49;12.40;86.10
68215;DHT22;55036;52.138;5.236;2023-03-19T12:01:24;12.40;85.40
68215;DHT22;55036;52.138;5.236;2023-03-19T12:12:53;12.50;85.20
68215;DHT22;55036;52.138;5.236;2023-03-19T12:15:32;12.40;85.70
68215;DHT22;55036;52.138;5.236;2023-03-19T12:21:10;12.60;85.90
68215;DHT22;55036;52.138;5.236;2023-03-19T12:26:58;12.50;84.70
68215;DHT22;55036;52.138;5.236;2023-03-19T12:29:41;12.50;85.20
68215;DHT22;55036;52.138;5.236;2023-03-19T12:35:09;12.80;85.10
68215;DHT22;55036;52.138;5.236;2023-03-19T12:37:42;12.90;85.10
68215;DHT22;55036;52.138;5.236;2023-03-19T12:40:37;13.00;84.20
68215;DHT22;55036;52.138;5.236;2023-03-19T12:43:18;13.10;83.80
68215;DHT22;55036;52.138;5.236;2023-03-19T12:45:49;13.30;83.60
68215;DHT22;55036;52.138;5.236;2023-03-19T12:48:27;13.20;83.40
68215;DHT22;55036;52.138;5.236;2023-03-19T12:50:57;13.20;82.20
68215;DHT22;55036;52.138;5.236;2023-03-19T12:53:39;13.20;83.40
68215;DHT22;55036;52.138;5.236;2023-03-19T12:56:18;13.30;82.30
68215;DHT22;55036;52.138;5.236;2023-03-19T12:58:58;13.30;82.10
68215;DHT22;55036;52.138;5.236;2023-03-19T13:01:38;13.40;83.10
68215;DHT22;55036;52.138;5.236;2023-03-19T13:04:22;13.40;82.80
68215;DHT22;55036;52.138;5.236;2023-03-19T13:06:54;13.50;82.20
68215;DHT22;55036;52.138;5.236;2023-03-19T13:09:37;13.50;82.00
68215;DHT22;55036;52.138;5.236;2023-03-19T13:12:10;13.50;81.60
68215;DHT22;55036;52.138;5.236;2023-03-19T13:14:58;13.50;81.90
68215;DHT22;55036;52.138;5.236;2023-03-19T13:17:34;13.60;81.10
68215;DHT22;55036;52.138;5.236;2023-03-19T13:20:23;13.60;81.30
68215;DHT22;55036;52.138;5.236;2023-03-19T13:22:58;13.70;81.20
68215;DHT22;55036;52.138;5.236;2023-03-19T13:25:53;13.70;81.00
68215;DHT22;55036;52.138;5.236;2023-03-19T13:28:34;13.90;81.10
68215;DHT22;55036;52.138;5.236;2023-03-19T13:31:06;14.00;80.70
68215;DHT22;55036;52.138;5.236;2023-03-19T13:33:34;14.00;79.30
68215;DHT22;55036;52.138;5.236;2023-03-19T13:36:13;14.00;79.90
68215;DHT22;55036;52.138;5.236;2023-03-19T13:38:44;14.20;79.80
68215;DHT22;55036;52.138;5.236;2023-03-19T13:43:59;14.10;78.40
68215;DHT22;55036;52.138;5.236;2023-03-19T13:46:44;14.20;78.40
68215;DHT22;55036;52.138;5.236;2023-03-19T13:49:27;14.20;78.40
68215;DHT22;55036;52.138;5.236;2023-03-19T13:54:43;14.30;78.50
68215;DHT22;55036;52.138;5.236;2023-03-19T13:59:46;14.30;76.40
68215;DHT22;55036;52.138;5.236;2023-03-19T14:05:00;14.30;76.70
68215;DHT22;55036;52.138;5.236;2023-03-19T14:07:35;14.30;77.90
68215;DHT22;55036;52.138;5.236;2023-03-19T14:10:28;14.40;76.40
68215;DHT22;55036;52.138;5.236;2023-03-19T14:13:27;14.50;77.70
68215;DHT22;55036;52.138;5.236;2023-03-19T14:16:06;14.60;77.00
68215;DHT22;55036;52.138;5.236;2023-03-19T14:18:38;14.60;76.70
68215;DHT22;55036;52.138;5.236;2023-03-19T14:21:29;14.60;75.90
68215;DHT22;55036;52.138;5.236;2023-03-19T14:23:54;14.50;76.10
68215;DHT22;55036;52.138;5.236;2023-03-19T14:26:24;14.60;76.70
68215;DHT22;55036;52.138;5.236;2023-03-19T14:28:55;14.60;76.50
68215;DHT22;55036;52.138;5.236;2023-03-19T14:31:31;14.60;76.10
68215;DHT22;55036;52.138;5.236;2023-03-19T14:34:25;14.60;75.70
68215;DHT22;55036;52.138;5.236;2023-03-19T14:37:24;14.60;75.70
68215;DHT22;55036;52.138;5.236;2023-03-19T14:40:01;14.50;75.30
68215;DHT22;55036;52.138;5.236;2023-03-19T14:51:52;14.40;74.10
68215;DHT22;55036;52.138;5.236;2023-03-19T14:54:40;14.30;75.50
68215;DHT22;55036;52.138;5.236;2023-03-19T14:57:20;14.30;74.50
68215;DHT22;55036;52.138;5.236;2023-03-19T14:59:48;14.30;75.30
68215;DHT22;55036;52.138;5.236;2023-03-19T15:02:39;14.40;75.50
68215;DHT22;55036;52.138;5.236;2023-03-19T15:08:08;14.20;75.60
68215;DHT22;55036;52.138;5.236;2023-03-19T15:10:42;14.20;75.10
68215;DHT22;55036;52.138;5.236;2023-03-19T15:13:33;14.20;75.10
68215;DHT22;55036;52.138;5.236;2023-03-19T15:19:10;14.10;75.50
68215;DHT22;55036;52.138;5.236;2023-03-19T15:21:38;14.10;75.40
68215;DHT22;55036;52.138;5.236;2023-03-19T15:24:06;14.00;75.20
68215;DHT22;55036;52.138;5.236;2023-03-19T15:26:38;14.00;75.60
68215;DHT22;55036;52.138;5.236;2023-03-19T15:29:05;13.90;75.20
68215;DHT22;55036;52.138;5.236;2023-03-19T15:31:45;13.90;75.80
68215;DHT22;55036;52.138;5.236;2023-03-19T15:34:28;13.90;75.80
68215;DHT22;55036;52.138;5.236;2023-03-19T15:37:00;13.90;75.60
68215;DHT22;55036;52.138;5.236;2023-03-19T15:39:31;13.80;76.00
68215;DHT22;55036;52.138;5.236;2023-03-19T15:42:00;13.70;76.40
68215;DHT22;55036;52.138;5.236;2023-03-19T15:44:50;13.70;76.40
68215;DHT22;55036;52.138;5.236;2023-03-19T15:47:24;13.60;76.50
68215;DHT22;55036;52.138;5.236;2023-03-19T15:50:00;13.70;76.70
68215;DHT22;55036;52.138;5.236;2023-03-19T15:52:31;13.70;76.70
68215;DHT22;55036;52.138;5.236;2023-03-19T15:55:00;13.70;76.90
68215;DHT22;55036;52.138;5.236;2023-03-19T15:57:28;13.60;76.90
68215;DHT22;55036;52.138;5.236;2023-03-19T15:59:55;13.70;77.00
68215;DHT22;55036;52.138;5.236;2023-03-19T16:02:29;13.70;76.90
68215;DHT22;55036;52.138;5.236;2023-03-19T16:04:57;13.70;76.80
68215;DHT22;55036;52.138;5.236;2023-03-19T16:07:51;13.70;76.80
68215;DHT22;55036;52.138;5.236;2023-03-19T16:10:38;13.70;77.20
68215;DHT22;55036;52.138;5.236;2023-03-19T16:17:13;13.50;78.00
68215;DHT22;55036;52.138;5.236;2023-03-19T16:19:54;13.40;78.60
68215;DHT22;55036;52.138;5.236;2023-03-19T16:22:28;13.40;78.50
68215;DHT22;55036;52.138;5.236;2023-03-19T16:24:56;13.40;78.50
68215;DHT22;55036;52.138;5.236;2023-03-19T16:27:33;13.30;79.30
68215;DHT22;55036;52.138;5.236;2023-03-19T16:30:00;13.10;79.20
68215;DHT22;55036;52.138;5.236;2023-03-19T16:32:29;13.10;79.30
68215;DHT22;55036;52.138;5.236;2023-03-19T16:35:02;13.10;79.50
68215;DHT22;55036;52.138;5.236;2023-03-19T16:37:45;13.00;79.60
68215;DHT22;55036;52.138;5.236;2023-03-19T16:40:34;13.00;80.10
68215;DHT22;55036;52.138;5.236;2023-03-19T16:43:18;13.00;80.10
68215;DHT22;55036;52.138;5.236;2023-03-19T16:45:49;13.00;80.50
68215;DHT22;55036;52.138;5.236;2023-03-19T16:48:16;13.00;80.20
68215;DHT22;55036;52.138;5.236;2023-03-19T16:50:43;13.00;80.20
68215;DHT22;55036;52.138;5.236;2023-03-19T16:53:21;12.90;80.60
68215;DHT22;55036;52.138;5.236;2023-03-19T16:55:48;12.80;81.40
68215;DHT22;55036;52.138;5.236;2023-03-19T16:58:17;12.80;81.30
68215;DHT22;55036;52.138;5.236;2023-03-19T17:00:46;12.80;81.40
68215;DHT22;55036;52.138;5.236;2023-03-19T17:03:15;12.80;82.00
68215;DHT22;55036;52.138;5.236;2023-03-19T17:05:43;12.70;82.00
68215;DHT22;55036;52.138;5.236;2023-03-19T17:08:10;12.70;82.10
68215;DHT22;55036;52.138;5.236;2023-03-19T17:10:41;12.70;82.20
68215;DHT22;55036;52.138;5.236;2023-03-19T17:13:28;12.80;81.80
68215;DHT22;55036;52.138;5.236;2023-03-19T17:15:59;12.80;81.90
68215;DHT22;55036;52.138;5.236;2023-03-19T17:18:39;12.90;81.80
68215;DHT22;55036;52.138;5.236;2023-03-19T17:21:28;12.90;81.30